createdAt,value
2022-07-29T00:01:29.083Z,18.8
2022-07-29T00:11:29.484Z,18.7
2022-07-29T00:21:30.252Z,18.5
2022-07-29T00:31:31.233Z,18.3
2022-07-29T00:41:31.205Z,18.2
2022-07-29T00:51:31.874Z,18
2022-07-29T01:01:32.778Z,17.9
2022-07-29T01:11:32.801Z,18
2022-07-29T01:21:33.024Z,17.8
2022-07-29T01:41:33.595Z,17.7
2022-07-29T01:51:34.133Z,17.6
2022-07-29T02:01:34.853Z,17.5
2022-07-29T02:11:35.461Z,17.4
2022-07-29T02:21:35.640Z,17.3
2022-07-29T02:31:35.729Z,17.1
2022-07-29T02:41:36.319Z,17.2
2022-07-29T03:01:36.892Z,16.9
2022-07-29T03:11:40.176Z,17
2022-07-29T03:21:38.029Z,16.9
2022-07-29T03:31:38.904Z,16.8
2022-07-29T03:41:39.695Z,17
2022-07-29T03:51:40.174Z,17.1
2022-07-29T04:01:40.858Z,17.1
2022-07-29T04:11:57.259Z,17.2
2022-07-29T04:21:41.835Z,17.2
2022-07-29T04:31:42.817Z,17.2
2022-07-29T04:41:43.041Z,17
2022-07-29T04:51:43.735Z,16.9
2022-07-29T05:01:44.656Z,16.9
2022-07-29T05:11:44.672Z,16.6
2022-07-29T05:21:45.046Z,16.3
2022-07-29T05:31:45.414Z,16.1
2022-07-29T05:41:50.086Z,15.8
2022-07-29T05:51:47.090Z,15.9
2022-07-29T06:01:47.563Z,16
2022-07-29T06:11:47.642Z,15.9
2022-07-29T06:21:48.185Z,15.7
2022-07-29T06:31:48.566Z,15.8
2022-07-29T06:41:48.719Z,15.7
2022-07-29T06:51:49.634Z,15.8
2022-07-29T07:01:50.129Z,16
2022-07-29T07:11:50.278Z,16.3
2022-07-29T07:21:50.993Z,16.4
2022-07-29T07:31:51.745Z,16.2
2022-07-29T07:41:52.052Z,16.4
2022-07-29T07:51:52.917Z,16.8
2022-07-29T08:01:55.087Z,17.2
2022-07-29T08:11:54.052Z,17.3
2022-07-29T08:31:55.488Z,17.5
2022-07-29T08:41:56.585Z,17.7
2022-07-29T09:01:57.201Z,17.8
2022-07-29T09:11:58.186Z,17.8
2022-07-29T09:21:58.476Z,17.7
2022-07-29T09:31:59.034Z,17.5
2022-07-29T09:41:59.390Z,17.5
2022-07-29T09:51:59.511Z,17.3
2022-07-29T10:01:59.813Z,17.2
2022-07-29T10:12:00.651Z,17.2
2022-07-29T10:22:01.239Z,17.1
2022-07-29T10:32:01.297Z,17.4
2022-07-29T10:42:02.271Z,17.3
2022-07-29T10:52:03.446Z,17.1
2022-07-29T11:02:28.162Z,17.2
2022-07-29T11:12:03.911Z,17.3
2022-07-29T11:22:04.171Z,17.7
2022-07-29T11:52:05.792Z,18.2
2022-07-29T12:02:33.563Z,18.4
2022-07-29T12:12:06.876Z,18.9
2022-07-29T12:22:06.830Z,19.9
2022-07-29T12:32:14.816Z,21.2
2022-07-29T12:42:08.075Z,22.4
2022-07-29T12:52:07.906Z,22.6
2022-07-29T13:02:08.277Z,22.8
2022-07-29T13:12:09.245Z,22.7
2022-07-29T13:22:09.832Z,22.4
2022-07-29T13:32:09.803Z,22.4
2022-07-29T13:42:11.143Z,22.3
2022-07-29T13:52:11.039Z,22.3
2022-07-29T14:02:11.127Z,22.3
2022-07-29T14:22:12.346Z,22.4
2022-07-29T14:32:12.773Z,22.9
2022-07-29T14:42:13.965Z,22.8
2022-07-29T14:52:14.652Z,23.1
2022-07-29T15:02:14.799Z,23.4
2022-07-29T15:12:15.778Z,23.4
2022-07-29T15:22:16.545Z,23.3
2022-07-29T15:32:17.397Z,23.4
2022-07-29T15:52:18.969Z,23.7
2022-07-29T16:02:19.861Z,23.9
2022-07-29T16:12:20.552Z,23.8
2022-07-29T16:22:20.758Z,23.7
2022-07-29T16:32:22.395Z,24.2
2022-07-29T16:42:44.175Z,24.3
2022-07-29T16:52:23.057Z,24.1
2022-07-29T17:02:23.648Z,24.6
2022-07-29T17:22:24.365Z,24.2
2022-07-29T17:32:24.445Z,24.4
2022-07-29T17:52:25.803Z,24.5
2022-07-29T18:02:26.547Z,24.1
2022-07-29T18:12:26.643Z,23.8
2022-07-29T18:22:27.141Z,23.3
2022-07-29T18:32:28.976Z,23
2022-07-29T18:42:27.345Z,22.8
2022-07-29T18:52:28.267Z,22.6
2022-07-29T19:02:28.674Z,22.4
2022-07-29T19:12:28.856Z,22
2022-07-29T19:22:29.279Z,21.6
2022-07-29T19:32:29.630Z,21.3
2022-07-29T19:42:29.707Z,20.8
2022-07-29T19:52:30.214Z,20.5
2022-07-29T20:02:30.081Z,20.4
2022-07-29T20:12:30.376Z,20.2
2022-07-29T20:22:30.863Z,20
2022-07-29T20:32:31.813Z,19.9
2022-07-29T20:42:32.407Z,19.7
2022-07-29T20:52:32.641Z,19.5
2022-07-29T21:02:32.873Z,19.2
2022-07-29T21:12:33.712Z,18.9
2022-07-29T21:22:34.704Z,18.7
2022-07-29T21:32:34.756Z,18.6
2022-07-29T21:42:35.697Z,18.2
2022-07-29T22:12:37.186Z,17.9
2022-07-29T22:22:37.574Z,17.8
2022-07-29T22:32:37.878Z,17.8
2022-07-29T22:42:40.742Z,17.7
2022-07-29T22:52:39.177Z,17.6
2022-07-29T23:02:39.918Z,17.4
2022-07-29T23:12:40.884Z,17.3
2022-07-29T23:22:41.481Z,17.1
2022-07-29T23:32:42.268Z,16.9
2022-07-29T23:42:42.995Z,16.7
